createdAt,value
2022-09-07T00:00:54.979Z,100.00
2022-09-07T00:03:22.066Z,100.00
2022-09-07T00:05:51.998Z,100.00
2022-09-07T00:08:22.421Z,100.00
2022-09-07T00:11:11.161Z,100.00
2022-09-07T00:13:39.694Z,100.00
2022-09-07T00:16:09.956Z,100.00
2022-09-07T00:18:36.808Z,100.00
2022-09-07T00:21:10.821Z,100.00
2022-09-07T00:23:39.215Z,100.00
2022-09-07T00:26:11.978Z,100.00
2022-09-07T00:28:39.048Z,100.00
2022-09-07T00:31:14.077Z,100.00
2022-09-07T00:33:41.174Z,100.00
2022-09-07T00:36:07.669Z,100.00
2022-09-07T00:38:34.666Z,100.00
2022-09-07T00:41:01.558Z,100.00
2022-09-07T00:43:38.131Z,100.00
2022-09-07T00:46:06.786Z,100.00
2022-09-07T00:48:33.175Z,100.00
2022-09-07T00:51:04.563Z,100.00
2022-09-07T00:53:37.072Z,100.00
2022-09-07T00:56:04.408Z,100.00
2022-09-07T00:58:32.022Z,100.00
2022-09-07T01:00:58.509Z,100.00
2022-09-07T01:03:29.537Z,100.00
2022-09-07T01:06:18.755Z,100.00
2022-09-07T01:08:47.537Z,100.00
2022-09-07T01:11:18.786Z,100.00
2022-09-07T01:13:46.736Z,100.00
2022-09-07T01:16:45.524Z,100.00
2022-09-07T01:19:34.715Z,100.00
2022-09-07T01:22:16.492Z,100.00
2022-09-07T01:25:09.383Z,100.00
2022-09-07T01:27:57.695Z,100.00
2022-09-07T01:30:24.843Z,100.00
2022-09-07T01:33:09.584Z,100.00
2022-09-07T01:35:54.142Z,100.00
2022-09-07T01:38:29.387Z,100.00
2022-09-07T01:41:09.212Z,100.00
2022-09-07T01:44:14.005Z,100.00
2022-09-07T01:46:49.710Z,100.00
2022-09-07T01:49:28.307Z,100.00
2022-09-07T01:52:03.985Z,100.00
2022-09-07T01:54:34.947Z,100.00
2022-09-07T01:57:06.331Z,100.00
2022-09-07T01:59:37.885Z,100.00
2022-09-07T02:02:09.338Z,100.00
2022-09-07T02:04:47.650Z,100.00
2022-09-07T02:07:17.164Z,100.00
2022-09-07T02:10:08.584Z,100.00
2022-09-07T02:12:41.813Z,100.00
2022-09-07T02:15:15.604Z,100.00
2022-09-07T02:17:45.630Z,100.00
2022-09-07T02:20:19.286Z,100.00
2022-09-07T02:22:50.758Z,100.00
2022-09-07T02:25:24.141Z,100.00
2022-09-07T02:27:57.255Z,100.00
2022-09-07T02:30:23.747Z,100.00
2022-09-07T02:32:50.538Z,100.00
2022-09-07T02:35:17.235Z,100.00
2022-09-07T02:37:45.426Z,100.00
2022-09-07T02:40:12.881Z,100.00
2022-09-07T02:42:39.772Z,100.00
2022-09-07T02:45:09.288Z,100.00
2022-09-07T02:47:44.942Z,100.00
2022-09-07T02:50:17.311Z,100.00
2022-09-07T02:53:05.972Z,100.00
2022-09-07T02:55:35.319Z,100.00
2022-09-07T02:58:17.735Z,100.00
2022-09-07T03:01:10.253Z,100.00
2022-09-07T03:03:54.975Z,100.00
2022-09-07T03:06:53.886Z,100.00
2022-09-07T03:09:25.197Z,100.00
2022-09-07T03:11:52.266Z,100.00
2022-09-07T03:14:24.507Z,100.00
2022-09-07T03:16:53.611Z,100.00
2022-09-07T03:19:20.072Z,100.00
2022-09-07T03:21:46.639Z,100.00
2022-09-07T03:24:13.136Z,100.00
2022-09-07T03:26:43.662Z,100.00
2022-09-07T03:29:10.129Z,100.00
2022-09-07T03:31:36.693Z,100.00
2022-09-07T03:34:03.194Z,100.00
2022-09-07T03:36:30.564Z,100.00
2022-09-07T03:38:59.251Z,100.00
2022-09-07T03:41:27.012Z,100.00
2022-09-07T03:43:53.519Z,100.00
2022-09-07T03:46:20.628Z,100.00
2022-09-07T03:48:49.708Z,100.00
2022-09-07T03:51:17.668Z,100.00
2022-09-07T03:53:46.337Z,100.00
2022-09-07T03:56:24.340Z,100.00
2022-09-07T03:58:53.131Z,100.00
2022-09-07T04:01:23.497Z,100.00
2022-09-07T04:03:50.380Z,100.00
2022-09-07T04:06:17.772Z,100.00
2022-09-07T04:08:44.778Z,100.00
2022-09-07T04:11:14.712Z,100.00
2022-09-07T04:13:41.584Z,100.00
2022-09-07T04:16:12.616Z,100.00
2022-09-07T04:18:39.068Z,100.00
2022-09-07T04:21:05.679Z,100.00
2022-09-07T04:23:32.287Z,100.00
2022-09-07T04:25:59.259Z,100.00
2022-09-07T04:28:25.890Z,100.00
2022-09-07T04:30:52.401Z,100.00
2022-09-07T04:33:19.065Z,100.00
2022-09-07T04:35:45.493Z,100.00
2022-09-07T04:38:14.904Z,100.00
2022-09-07T04:40:41.986Z,100.00
2022-09-07T04:43:09.566Z,100.00
2022-09-07T04:45:37.120Z,100.00
2022-09-07T04:48:04.638Z,100.00
2022-09-07T04:50:31.337Z,100.00
2022-09-07T04:52:57.843Z,100.00
2022-09-07T04:55:24.464Z,100.00
2022-09-07T04:57:51.171Z,100.00
2022-09-07T05:00:17.821Z,100.00
2022-09-07T05:02:44.505Z,100.00
2022-09-07T05:05:11.057Z,100.00
2022-09-07T05:07:37.603Z,100.00
2022-09-07T05:10:04.469Z,100.00
2022-09-07T05:12:30.937Z,100.00
2022-09-07T05:14:57.706Z,100.00
2022-09-07T05:17:24.200Z,100.00
2022-09-07T05:19:50.683Z,100.00
2022-09-07T05:22:17.533Z,100.00
2022-09-07T05:24:44.033Z,100.00
2022-09-07T05:27:10.460Z,100.00
2022-09-07T05:32:23.583Z,100.00
2022-09-07T05:34:52.911Z,100.00
2022-09-07T05:37:19.825Z,100.00
2022-09-07T05:39:46.798Z,100.00
2022-09-07T05:42:13.301Z,100.00
2022-09-07T05:47:09.374Z,100.00
2022-09-07T05:49:35.827Z,100.00
2022-09-07T05:52:02.462Z,100.00
2022-09-07T05:54:28.919Z,100.00
2022-09-07T05:56:55.335Z,100.00
2022-09-07T05:59:21.820Z,100.00
2022-09-07T06:01:48.323Z,100.00
2022-09-07T06:04:14.937Z,100.00
2022-09-07T06:06:41.374Z,100.00
2022-09-07T06:09:07.901Z,100.00
2022-09-07T06:11:34.446Z,100.00
2022-09-07T06:14:00.878Z,100.00
2022-09-07T06:16:27.407Z,100.00
2022-09-07T06:18:54.301Z,100.00
2022-09-07T06:21:23.112Z,100.00
2022-09-07T06:23:50.432Z,100.00
2022-09-07T06:26:18.110Z,100.00
2022-09-07T06:28:49.643Z,100.00
2022-09-07T06:31:21.634Z,100.00
2022-09-07T06:33:48.877Z,100.00
2022-09-07T06:36:18.360Z,100.00
2022-09-07T06:38:45.221Z,100.00
2022-09-07T06:44:24.164Z,100.00
2022-09-07T06:47:05.948Z,100.00
2022-09-07T06:49:32.508Z,100.00
2022-09-07T06:51:59.047Z,100.00
2022-09-07T06:57:11.953Z,100.00
2022-09-07T06:59:38.573Z,100.00
2022-09-07T07:02:06.849Z,100.00
2022-09-07T07:04:39.371Z,100.00
2022-09-07T07:07:10.368Z,100.00
2022-09-07T07:09:36.847Z,100.00
2022-09-07T07:12:03.489Z,100.00
2022-09-07T07:14:33.696Z,100.00
2022-09-07T07:17:01.456Z,100.00
2022-09-07T07:19:28.354Z,100.00
2022-09-07T07:24:41.336Z,100.00
2022-09-07T07:27:07.784Z,100.00
2022-09-07T07:29:34.246Z,100.00
2022-09-07T07:32:01.044Z,100.00
2022-09-07T07:34:27.501Z,100.00
2022-09-07T07:36:53.930Z,100.00
2022-09-07T07:42:06.986Z,100.00
2022-09-07T07:44:33.925Z,100.00
2022-09-07T07:47:00.437Z,100.00
2022-09-07T07:49:26.907Z,100.00
2022-09-07T07:54:43.318Z,100.00
2022-09-07T07:57:10.310Z,100.00
2022-09-07T07:59:36.793Z,100.00
2022-09-07T08:02:05.296Z,100.00
2022-09-07T08:04:33.175Z,100.00
2022-09-07T08:07:00.023Z,100.00
2022-09-07T08:09:26.858Z,100.00
2022-09-07T08:11:53.507Z,100.00
2022-09-07T08:14:19.894Z,100.00
2022-09-07T08:16:46.372Z,100.00
2022-09-07T08:19:12.800Z,100.00
2022-09-07T08:21:39.144Z,100.00
2022-09-07T08:24:05.582Z,100.00
2022-09-07T08:26:32.031Z,100.00
2022-09-07T08:28:58.621Z,100.00
2022-09-07T08:31:25.062Z,100.00
2022-09-07T08:33:51.429Z,100.00
2022-09-07T08:36:20.254Z,100.00
2022-09-07T08:38:47.779Z,100.00
2022-09-07T08:41:43.915Z,99.10
2022-09-07T08:44:16.576Z,98.46
2022-09-07T08:46:48.614Z,96.06
2022-09-07T08:49:31.765Z,96.46
2022-09-07T08:52:03.913Z,94.86
2022-09-07T08:54:30.678Z,97.17
2022-09-07T09:00:00.483Z,93.50
2022-09-07T09:02:28.400Z,93.58
2022-09-07T09:07:47.794Z,94.75
2022-09-07T09:10:32.018Z,93.69
2022-09-07T09:13:10.154Z,92.24
2022-09-07T09:15:58.309Z,92.49
2022-09-07T09:18:45.517Z,94.73
2022-09-07T09:21:18.620Z,94.79
2022-09-07T09:23:49.876Z,93.08
2022-09-07T09:26:31.220Z,92.14
2022-09-07T09:28:57.585Z,90.88
2022-09-07T09:31:35.650Z,89.04
2022-09-07T09:34:05.092Z,88.44
2022-09-07T09:36:34.919Z,89.36
2022-09-07T09:39:01.330Z,91.26
2022-09-07T09:41:37.092Z,91.79
2022-09-07T09:44:03.700Z,91.70
2022-09-07T09:46:37.913Z,87.96
2022-09-07T09:49:17.868Z,90.53
2022-09-07T09:54:39.594Z,90.20
2022-09-07T09:57:06.645Z,90.26
2022-09-07T10:05:36.058Z,87.83
2022-09-07T10:08:06.269Z,87.47
2022-09-07T10:10:32.738Z,83.68
2022-09-07T10:12:59.602Z,87.75
2022-09-07T10:15:40.171Z,88.34
2022-09-07T10:18:18.617Z,88.14
2022-09-07T10:20:45.070Z,88.32
2022-09-07T10:23:25.214Z,86.09
2022-09-07T10:25:51.861Z,83.33
2022-09-07T10:28:21.404Z,87.27
2022-09-07T10:31:02.761Z,84.66
2022-09-07T10:36:51.441Z,84.83
2022-09-07T10:39:23.664Z,84.55
2022-09-07T10:41:59.361Z,82.19
2022-09-07T10:44:47.036Z,81.06
2022-09-07T10:47:19.442Z,81.75
2022-09-07T10:50:22.415Z,81.98
2022-09-07T10:53:40.314Z,81.07
2022-09-07T10:56:10.387Z,80.09
2022-09-07T10:59:02.213Z,81.55
2022-09-07T11:01:41.008Z,80.47
2022-09-07T11:04:46.265Z,80.50
2022-09-07T11:07:40.161Z,81.16
2022-09-07T11:10:18.737Z,80.98
2022-09-07T11:12:46.032Z,76.11
2022-09-07T11:15:12.304Z,74.45
2022-09-07T11:17:52.961Z,75.03
2022-09-07T11:20:26.763Z,77.84
2022-09-07T11:23:15.975Z,78.12
2022-09-07T11:26:19.499Z,79.59
2022-09-07T11:29:29.217Z,82.17
2022-09-07T11:31:45.014Z,83.76
2022-09-07T11:34:31.532Z,83.64
2022-09-07T11:37:22.006Z,81.95
2022-09-07T11:40:12.415Z,82.20
2022-09-07T11:42:50.139Z,81.99
2022-09-07T11:45:22.975Z,81.92
2022-09-07T11:47:56.249Z,80.26
2022-09-07T11:50:23.756Z,78.46
2022-09-07T11:52:55.773Z,79.03
2022-09-07T11:55:28.363Z,79.27
2022-09-07T11:58:20.111Z,75.85
2022-09-07T12:01:16.044Z,75.77
2022-09-07T12:04:00.778Z,74.03
2022-09-07T12:06:29.967Z,73.39
2022-09-07T12:08:59.703Z,71.91
2022-09-07T12:11:50.224Z,70.04
2022-09-07T12:14:36.914Z,68.57
2022-09-07T12:17:25.737Z,67.35
2022-09-07T12:20:15.706Z,64.90
2022-09-07T12:23:16.064Z,65.00
2022-09-07T12:25:51.421Z,64.01
2022-09-07T12:28:37.758Z,59.66
2022-09-07T12:31:10.941Z,57.94
2022-09-07T12:33:39.401Z,57.30
2022-09-07T12:36:41.269Z,57.22
2022-09-07T12:39:25.095Z,57.45
2022-09-07T12:45:30.172Z,56.08
2022-09-07T12:47:58.963Z,57.24
2022-09-07T12:50:37.058Z,57.15
2022-09-07T12:53:29.742Z,57.95
2022-09-07T12:56:21.218Z,57.28
2022-09-07T12:59:05.406Z,56.42
2022-09-07T13:01:47.114Z,54.43
2022-09-07T13:04:28.635Z,54.14
2022-09-07T13:07:12.361Z,54.76
2022-09-07T13:09:41.037Z,55.56
2022-09-07T13:12:57.350Z,56.25
2022-09-07T13:15:40.764Z,53.55
2022-09-07T13:18:30.235Z,53.11
2022-09-07T13:21:08.459Z,53.94
2022-09-07T13:23:35.856Z,55.89
2022-09-07T13:26:04.640Z,56.94
2022-09-07T13:28:57.987Z,57.01
2022-09-07T13:32:02.014Z,57.86
2022-09-07T13:34:34.443Z,58.62
2022-09-07T13:37:03.064Z,58.84
2022-09-07T13:39:40.618Z,60.63
2022-09-07T13:42:07.745Z,61.56
2022-09-07T13:44:34.542Z,61.38
2022-09-07T13:47:15.775Z,61.50
2022-09-07T13:49:57.218Z,61.67
2022-09-07T13:52:51.208Z,61.49
2022-09-07T13:55:31.769Z,60.59
2022-09-07T13:58:05.298Z,61.20
2022-09-07T14:00:31.835Z,60.61
2022-09-07T14:03:07.215Z,59.65
2022-09-07T14:05:33.789Z,60.30
2022-09-07T14:08:00.138Z,60.29
2022-09-07T14:10:26.689Z,60.04
2022-09-07T14:13:14.011Z,59.70
2022-09-07T14:15:48.496Z,58.94
2022-09-07T14:18:19.445Z,58.11
2022-09-07T14:20:49.456Z,58.33
2022-09-07T14:23:27.989Z,58.98
2022-09-07T14:26:17.966Z,59.32
2022-09-07T14:28:47.016Z,57.17
2022-09-07T14:31:15.774Z,57.46
2022-09-07T14:33:57.858Z,58.52
2022-09-07T14:36:44.597Z,58.67
2022-09-07T14:39:14.056Z,57.77
2022-09-07T14:41:41.977Z,57.59
2022-09-07T14:44:30.093Z,56.47
2022-09-07T14:46:59.242Z,57.89
2022-09-07T14:49:25.665Z,58.43
2022-09-07T14:51:53.713Z,57.58
2022-09-07T14:54:32.432Z,58.73
2022-09-07T14:57:09.400Z,58.92
2022-09-07T14:59:43.732Z,58.24
2022-09-07T15:02:23.953Z,57.88
2022-09-07T15:05:16.277Z,59.46
2022-09-07T15:07:59.773Z,57.27
2022-09-07T15:10:35.242Z,57.59
2022-09-07T15:13:03.621Z,58.20
2022-09-07T15:15:33.164Z,58.33
2022-09-07T15:18:08.224Z,57.88
2022-09-07T15:20:44.107Z,57.84
2022-09-07T15:23:16.370Z,57.49
2022-09-07T15:25:49.789Z,57.80
2022-09-07T15:34:02.295Z,56.68
2022-09-07T15:36:28.781Z,59.18
2022-09-07T15:39:03.547Z,56.79
2022-09-07T15:41:30.259Z,56.97
2022-09-07T15:43:57.225Z,55.89
2022-09-07T15:46:25.050Z,57.22
2022-09-07T15:48:54.645Z,57.27
2022-09-07T15:54:13.714Z,58.51
2022-09-07T15:56:40.887Z,57.59
2022-09-07T15:59:07.296Z,57.88
2022-09-07T16:04:20.920Z,58.81
2022-09-07T16:06:49.966Z,58.67
2022-09-07T16:09:17.503Z,58.27
2022-09-07T16:11:44.234Z,57.34
2022-09-07T16:14:12.303Z,56.54
2022-09-07T16:19:25.005Z,56.31
2022-09-07T16:21:51.457Z,56.06
2022-09-07T16:24:17.874Z,57.10
2022-09-07T16:26:44.233Z,57.43
2022-09-07T16:29:10.749Z,57.44
2022-09-07T16:31:37.569Z,58.64
2022-09-07T16:34:04.177Z,59.93
2022-09-07T16:36:30.775Z,57.56
2022-09-07T16:38:59.645Z,57.23
2022-09-07T16:41:29.285Z,57.54
2022-09-07T16:43:56.077Z,57.88
2022-09-07T16:46:25.386Z,57.49
2022-09-07T16:48:52.195Z,58.22
2022-09-07T16:51:21.216Z,59.24
2022-09-07T16:53:49.494Z,59.49
2022-09-07T16:56:18.440Z,60.45
2022-09-07T16:58:50.520Z,60.33
2022-09-07T17:01:19.638Z,60.62
2022-09-07T17:03:46.646Z,60.22
2022-09-07T17:06:14.709Z,60.74
2022-09-07T17:08:41.745Z,60.11
2022-09-07T17:11:15.679Z,61.08
2022-09-07T17:13:43.261Z,62.07
2022-09-07T17:16:13.042Z,61.95
2022-09-07T17:21:33.218Z,63.26
2022-09-07T17:24:00.767Z,62.52
2022-09-07T17:26:27.605Z,62.95
2022-09-07T17:29:00.099Z,64.07
2022-09-07T17:34:19.586Z,63.99
2022-09-07T17:36:46.160Z,64.43
2022-09-07T17:39:14.904Z,65.86
2022-09-07T17:41:42.931Z,65.48
2022-09-07T17:44:09.327Z,67.84
2022-09-07T17:46:36.192Z,67.99
2022-09-07T17:49:03.411Z,69.44
2022-09-07T17:51:32.549Z,71.71
2022-09-07T17:54:09.204Z,71.23
2022-09-07T17:56:36.467Z,71.56
2022-09-07T18:01:49.404Z,72.33
2022-09-07T18:04:15.774Z,73.74
2022-09-07T18:06:42.189Z,71.20
2022-09-07T18:09:08.752Z,71.09
2022-09-07T18:11:51.037Z,71.86
2022-09-07T18:14:18.736Z,71.47
2022-09-07T18:16:49.329Z,71.00
2022-09-07T18:19:18.199Z,70.48
2022-09-07T18:21:45.329Z,71.30
2022-09-07T18:24:18.018Z,72.20
2022-09-07T18:26:50.223Z,74.38
2022-09-07T18:29:28.583Z,75.88
2022-09-07T18:31:56.433Z,76.90
2022-09-07T18:34:23.176Z,78.34
2022-09-07T18:36:49.630Z,76.83
2022-09-07T18:39:16.199Z,77.43
2022-09-07T18:41:42.677Z,79.08
2022-09-07T18:46:55.902Z,81.08
2022-09-07T18:49:22.511Z,81.59
2022-09-07T18:54:35.238Z,83.45
2022-09-07T18:57:01.575Z,85.50
2022-09-07T18:59:28.101Z,85.43
2022-09-07T19:02:01.371Z,85.75
2022-09-07T19:05:49.704Z,85.76
2022-09-07T19:07:17.006Z,86.38
2022-09-07T19:09:43.425Z,85.91
2022-09-07T19:12:10.168Z,86.21
2022-09-07T19:14:36.687Z,87.68
2022-09-07T19:17:03.076Z,88.33
2022-09-07T19:19:29.544Z,89.53
2022-09-07T19:21:57.761Z,89.60
2022-09-07T19:24:25.677Z,89.53
2022-09-07T19:26:53.917Z,89.54
2022-09-07T19:29:23.589Z,89.08
2022-09-07T19:32:07.470Z,88.46
2022-09-07T19:34:38.734Z,88.43
2022-09-07T19:37:08.544Z,88.23
2022-09-07T19:39:35.157Z,87.17
2022-09-07T19:42:04.173Z,88.08
2022-09-07T19:44:31.190Z,88.47
2022-09-07T19:46:57.751Z,87.23
2022-09-07T19:49:24.231Z,89.18
2022-09-07T19:51:51.820Z,88.94
2022-09-07T19:54:18.641Z,88.73
2022-09-07T19:56:45.034Z,88.41
2022-09-07T19:59:12.274Z,87.68
2022-09-07T20:01:40.507Z,87.33
2022-09-07T20:04:10.583Z,88.30
2022-09-07T20:06:39.331Z,88.00
2022-09-07T20:09:06.846Z,88.31
2022-09-07T20:11:34.786Z,88.95
2022-09-07T20:14:01.195Z,89.56
2022-09-07T20:16:31.220Z,91.04
2022-09-07T20:18:59.036Z,89.90
2022-09-07T20:21:26.087Z,90.60
2022-09-07T20:23:52.456Z,90.93
2022-09-07T20:26:21.086Z,91.27
2022-09-07T20:29:16.446Z,91.80
2022-09-07T20:31:43.959Z,92.04
2022-09-07T20:34:10.935Z,93.23
2022-09-07T20:36:37.540Z,93.97
2022-09-07T20:39:04.576Z,94.25
2022-09-07T20:41:33.849Z,93.17
2022-09-07T20:44:03.229Z,96.01
2022-09-07T20:46:30.367Z,96.85
2022-09-07T20:48:57.038Z,96.66
2022-09-07T20:51:23.531Z,97.00
2022-09-07T20:53:50.357Z,97.32
2022-09-07T20:56:22.288Z,97.73
2022-09-07T20:58:53.618Z,97.77
2022-09-07T21:01:21.104Z,98.13
2022-09-07T21:03:50.785Z,98.34
2022-09-07T21:06:18.800Z,98.68
2022-09-07T21:08:47.014Z,98.83
2022-09-07T21:11:23.310Z,98.70
2022-09-07T21:14:01.013Z,100.00
2022-09-07T21:16:28.315Z,100.00
2022-09-07T21:18:57.146Z,98.86
2022-09-07T21:21:26.451Z,100.00
2022-09-07T21:23:59.175Z,100.00
2022-09-07T21:26:27.660Z,100.00
2022-09-07T21:29:05.107Z,100.00
2022-09-07T21:31:33.476Z,100.00
2022-09-07T21:34:01.782Z,100.00
2022-09-07T21:36:29.488Z,100.00
2022-09-07T21:38:57.035Z,100.00
2022-09-07T21:41:24.725Z,100.00
2022-09-07T21:43:55.722Z,100.00
2022-09-07T21:46:22.423Z,100.00
2022-09-07T21:48:48.899Z,100.00
2022-09-07T21:51:15.595Z,100.00
2022-09-07T21:53:43.228Z,100.00
2022-09-07T21:56:11.659Z,100.00
2022-09-07T21:58:39.716Z,100.00
2022-09-07T22:01:17.726Z,100.00
2022-09-07T22:03:46.386Z,100.00
2022-09-07T22:06:14.297Z,100.00
2022-09-07T22:08:41.639Z,100.00
2022-09-07T22:11:11.218Z,100.00
2022-09-07T22:13:38.023Z,100.00
2022-09-07T22:16:05.779Z,100.00
2022-09-07T22:18:32.941Z,100.00
2022-09-07T22:21:10.899Z,100.00
2022-09-07T22:23:40.632Z,100.00
2022-09-07T22:26:07.771Z,100.00
2022-09-07T22:28:35.425Z,100.00
2022-09-07T22:31:18.679Z,100.00
2022-09-07T22:33:47.611Z,100.00
2022-09-07T22:36:26.553Z,100.00
2022-09-07T22:38:54.552Z,100.00
2022-09-07T22:41:24.905Z,100.00
2022-09-07T22:43:51.675Z,100.00
2022-09-07T22:46:20.054Z,100.00
2022-09-07T22:48:46.827Z,100.00
2022-09-07T22:51:13.610Z,100.00
2022-09-07T22:53:42.409Z,100.00
2022-09-07T22:56:18.465Z,100.00
2022-09-07T22:58:56.956Z,100.00
2022-09-07T23:01:23.851Z,100.00
2022-09-07T23:03:50.701Z,100.00
2022-09-07T23:06:37.998Z,100.00
2022-09-07T23:09:08.119Z,100.00
2022-09-07T23:11:35.071Z,100.00
2022-09-07T23:14:03.484Z,100.00
2022-09-07T23:16:30.122Z,100.00
2022-09-07T23:19:00.595Z,100.00
2022-09-07T23:21:27.799Z,100.00
2022-09-07T23:23:56.964Z,100.00
2022-09-07T23:26:25.122Z,100.00
2022-09-07T23:28:57.073Z,100.00
2022-09-07T23:31:24.696Z,100.00
2022-09-07T23:33:51.610Z,100.00
2022-09-07T23:36:18.921Z,100.00
2022-09-07T23:38:46.344Z,100.00
2022-09-07T23:41:17.754Z,100.00
2022-09-07T23:43:44.212Z,100.00
2022-09-07T23:46:11.698Z,100.00
2022-09-07T23:48:38.258Z,100.00
2022-09-07T23:51:05.230Z,100.00
2022-09-07T23:53:31.932Z,100.00
2022-09-07T23:55:58.569Z,100.00
2022-09-07T23:58:24.936Z,100.00
